Terminal Aerodrome Forecast
Issued by NWS

Home | Current Version | Previous Version | Graphics & Text | Print | Product List | Glossary On
Versions: 1 2 3 4 5 6 7 8 9 10 11 12 13 14 15 16 17 18 19
000
FTUS43 KBIS 230500 AAA
TAFJMS
TAF AMD
KJMS 230542Z 2306/2406 12015KT P6SM SCT120 BKN180
     FM230800 12019G26KT P6SM VCSH SCT040 BKN070 OVC090
      TEMPO 2308/2310 -SHRA BKN040 OVC060
     FM231000 12022G28KT 4SM -SHRA BKN035 OVC060
     FM231500 13027G35KT P6SM BKN040 OVC080
     FM232100 13020G27KT P6SM -SHRA SCT020 OVC045
     FM240100 13015G23KT P6SM -SHRA OVC025=

USA.gov is the U.S. government's official web portal to all federal, state and local government web resources and services.